Details From DNKN - Mallam Aminu Intl
To DAUI - In Salah
Flight Number -
Tags Generated
Created
Modified
Stats Distance 974 nm / 1,805 km
Max Altitude 0 ft / 0 m
Waypoints 4
Social Downloads 1
Likes 0
Share VATSIM

Download

Looking for another format? Having issues loading an existing format? Contact us
Advertisement - Login to hide

Notes

Generated

Route

DNKN IGZ NSL DAUI

ID Type Via Altitude Latitude Longitude Leg Dist Tot Dist Heading (true) Name
O DNKN APT - 0 ft / 0 m 12.03887˚ 8.52187˚ - 0 nm - -
IGZ VOR - 0 ft / 0 m 19.56361˚ 5.73389˚ 479 nm 479 nm 341° / 340° IN GUEZZAM VOR
NSL VOR - 0 ft / 0 m 27.23667˚ 2.49250˚ 494 nm 973 nm 339° / 338° IN SALAH VOR-DME
O DAUI APT - 0 ft / 0 m 27.24251˚ 2.50028˚ 0 nm 974 nm 50° / 50° -

Altitude Profile

Advertisement - Login to hide

Weather


0- 5 10 15 20 25 30 35+ Temperature / ° C

Clouds and Precipitation
Forecast for 2017-12-15 12:00 UTC. Updated an hour ago

Ground ~20,000 ft ~40,000 ft Winds

DNKN

Details ICAO DNKN (KAN)
Name MALLAM AMINU INTL
Region Nigeria
Timezone Africa/Lagos (UTC+1.0)
Stats Elevation 1,562 ft / 476 m (AMSL)
Location 12.047784° 8.524852°
Runways 2
Magnetic Variation 0.091° W

METAR

DNKN 151200Z 08011KT 2000 HZ NSC 27/04 Q1017 NOSIG

Decode

TAF

TAF DNKN 150930Z 1512/1618 07010KT 1500 HZ NSC BECMG 1520/1522 5000 TEMPO 1606/1612 3000

Decode

Departure Runways

ID Width Length Bearing (true) Bearing (mag) Surface Threshold Offset Overrun Length
05 148 ft / 45 m 8,059 ft / 2,456 m 44.46° 44.55° Asphalt 492 ft / 150 m 197 ft / 60 m
06 197 ft / 60 m 10,837 ft / 3,303 m 60.97° 61.06° Asphalt 0 ft / 0 m 375 ft / 114 m
23 148 ft / 45 m 8,059 ft / 2,456 m 224.47° 224.56° Asphalt 0 ft / 0 m 197 ft / 60 m
24 197 ft / 60 m 10,837 ft / 3,303 m 240.98° 241.07° Asphalt 0 ft / 0 m 375 ft / 114 m

DAUI

Details ICAO DAUI (INZ)
Name IN SALAH
Region Algeria
Timezone Africa/Algiers (UTC+1.0)
Stats Elevation 896 ft / 273 m (AMSL)
Location 27.251021° 2.512018°
Runways 1
Magnetic Variation 0.442° E

METAR

Not found

TAF

TAF DAUI 151100Z 1512/1612 12012KT 5000 -RA SCT046 BKN100 PROB40 TEMPO 1512/1520 12015G25KT -TSRA FEW040CB BECMG 1518/1521 VRB02KT BECMG 1521/1524 8000 NSW

Decode

Destination Runways

ID Width Length Bearing (true) Bearing (mag) Surface Threshold Offset Overrun Length
05 148 ft / 45 m 9,827 ft / 2,995 m 50.81° 50.37° Asphalt 0 ft / 0 m 150 ft / 46 m
23 148 ft / 45 m 9,827 ft / 2,995 m 230.82° 230.38° Asphalt 0 ft / 0 m 150 ft / 46 m